Aviation Digital Data Service (ADDS)

Output produced by METARs form (1116 UTC 24 April 2017)
found at http://www.aviationweather.gov/adds/metars/
 
VTBD 241100Z 17011KT 9000 FEW030 35/22 Q1005 NOSIG
TAF VTBD 240500Z 2406/2512 24005KT 9999 FEW030 
     BECMG 2408/2410 18005KT 
     BECMG 2417/2419 12005KT 8000 
     BECMG 2423/2501 24005KT 9999 
     BECMG 2505/2507 18010KT
       
VTUO 240800Z 16007KT 100V260 9999 SCT020 36/23 Q1007 A2974 INFO I RWY 22
TAF VTUO 240500Z 2406/2506 26005KT 9999 FEW025 
     BECMG 2418/2420 24003KT 8000 NSC
       
VTCC 241100Z 21005KT 8000 FEW025CB SCT040 34/14 Q1006 A2972 NOSIG
TAF VTCC 240500Z 2406/2512 22005KT 8000 FEW035 
     TEMPO 2408/2415 VRB15G30KT 4000 TSRA FEW025CB BKN030
       
VTCT 241000Z 16005KT 120V200 9999 FEW018TCU 32/22 Q1006 A2970
TAF VTCT 240500Z 2406/2512 22005KT 8000 FEW035 
     TEMPO 2408/2415 VRB15G30KT 4000 TSRA FEW025CB BKN030
       
VTSE 241100Z 18005KT 8000 FEW020 31/26 Q1007
TAF VTSE 240500Z 2406/2506 29009KT 8000 FEW020 
     TEMPO 2406/2412 VRB12KT 6000 -RA SCT015 BKN100 
     BECMG 2412/2414 VRB02KT 
     BECMG 2421/2423 5000 BR 
     BECMG 2501/2503 28008KT 8000
       
VTSS 241100Z 11002KT 9999 FEW018CB SCT020 BKN100 25/23 Q1009 NOSIG
TAF VTSS 240500Z 2406/2506 24007KT 9999 SCT020 
     TEMPO 2406/2412 VRB14KT 6000 -TSRA FEW016CB SCT018 BKN100 
     BECMG 2412/2414 00000KT 
     BECMG 2501/2503 13004KT
       
VTPH 241100Z 15009KT CAVOK 31/25 Q1006
TAF VTPH 240500Z 2406/2506 14010KT 9999 FEW030 
     BECMG 2412/2414 20005KT CAVOK 
     BECMG 2416/2418 26005KT 9000 NSC 
     BECMG 2422/2424 VRB03KT 
     BECMG 2502/2504 10005KT 9999 FEW030
       
VTUK 241100Z 03007KT 360V080 9999 FEW030CB 25/22 Q1007 NOSIG
TAF VTUK 240500Z 2406/2506 20005KT 8000 SCT025 
     BECMG 2422/2424 6000 FEW030 
     BECMG 2503/2505 9999 SCT025
       
VTSG 241100Z 06004KT 010V100 9999 SCT020 26/23 Q1010
TAF VTSG 240500Z 2406/2506 28008KT 9000 FEW020 BKN100 
     PROB30 
     TEMPO 2406/2410 VRB10G20KT 3000 TSRA FEW016CB SCT020 BKN100 
     BECMG 2416/2418 VRB02KT 3000 BR 
     BECMG 2501/2503 27008KT 9000
       
VTCL 241100Z 26002KT 9999 FEW025 SCT100 35/20 Q1004 A2967
TAF VTCL 240500Z 2406/2506 22005KT 8000 FEW035
       
VTUL 241100Z 18005KT 100V240 6000 FEW022 SCT032 24/21 Q1007 RERATS
TAF VTUL 240500Z 2406/2506 VRB05KT 6000 SCT025 
     BECMG 2422/2424 00000KT 6000 FEW030 
     BECMG 2503/2505 VRB05KT 9999 SCT025
       
VTCH 241000Z 25007KT 200V300 9999 FEW025 36/12 Q1005 A2967 INFO: K
TAF VTCH 240500Z 2406/2506 22005KT 8000 FEW035
       
VTPM 241000Z 26011KT 9999 FEW030 34/18 Q1007 A2974
TAF VTPM 240500Z 2406/2506 18005KT 8000 FEW035
       
VTUW 241100Z 09006KT 050V120 9000 NSC 23/23 Q1008
TAF VTUW 240500Z 2406/2506 14006KT 9999 BKN025 
     BECMG 2422/2424 8000 SCT025 
     BECMG 2503/2505 9999 BKN025
       
VTUQ 241100Z 24007KT 210V280 9999 FEW022 28/21 Q1007
TAF VTUQ 240500Z 2406/2506 25005KT 9999 FEW025 
     BECMG 2417/2419 22003KT 9000 NSC
       
VTSF 241100Z 25004KT 9999 FEW017CB SCT018 28/25 Q1009
TAF VTSF 240500Z 2406/2506 04006KT 9999 FEW020 
     TEMPO 2406/2412 VRB14KT 4000 TSRA FEW016CB SCT018 BKN100 
     BECMG 2412/2414 00000KT 
     BECMG 2503/2505 29006KT
       
VTCN 241100Z 02003KT 9999 SCT025 32/19 Q1004 A2966
TAF VTCN 240500Z 2406/2506 22005KT 8000 FEW035 
     TEMPO 2408/2415 VRB15G30KT 4000 TSRA FEW025CB BKN030
       
VTSC 240900Z 03010KT 9999 SCT022 32/25 Q1007
TAF VTSC 240500Z 2406/2506 06011KT 9999 SCT020 
     BECMG 2413/2415 VRB02KT 
     BECMG 2500/2502 17007KT
       
TAF VTSK 240500Z 2406/2506 02008KT 9999 FEW020 
     BECMG 2412/2414 VRB02KT 
     BECMG 2502/2504 18006KT
       
TAF VTPB 240500Z 2406/2506 18005KT 8000 FEW035 
     TEMPO 2408/2415 VRB15G30KT 4000 TSRA FEW025CB BKN030
       
VTPP 241000Z 26006KT 9999 FEW025 37/21 Q1004
TAF VTPP 240500Z 2406/2506 18005KT 8000 FEW035
       
VTCP 241100Z AUTO 19004KT 140V220 9000 // ////// 34/17 Q1004
TAF VTCP 240500Z 2406/2506 22005KT 8000 FEW035 
     TEMPO 2408/2415 VRB15G30KT 4000 TSRA FEW025CB BKN030
       
VTSP 241100Z 29004KT 250V320 8000 SCT016 BKN100 28/23 Q1010 RERA NOSIG
TAF VTSP 240500Z 2406/2512 29008KT 8000 FEW020 BKN100 
     PROB30 
     TEMPO 2406/2410 VRB10G20KT 3000 TSRA FEW016CB SCT020 BKN100 
     BECMG 2414/2416 00000KT 
     BECMG 2500/2502 28008KT
       
VTSR 241100Z VRB02KT 9999 R02///// BKN025 29/27 Q1009
TAF VTSR 240500Z 2406/2506 27008KT 9999 FEW020 
     PROB30 
     TEMPO 2406/2410 VRB10G20KT 3000 TSRA FEW016CB SCT020 BKN100 
     BECMG 2418/2420 00000KT 4000 BR 
     BECMG 2502/2504 27008KT 9000
       
VTUV 241100Z 30018KT 6000 TSRA FEW018CB BKN023 24/21 Q1007 A2975 INFO L RWY 36
TAF VTUV 240500Z 2406/2506 24005KT 9999 FEW025 SCT100 
     TEMPO 2407/2410 VRB10KT 5000 TSRA FEW018CB SCT020 BKN100 
     BECMG 2414/2416 22003KT 8000 SCT030
       
VTUI 241100Z 05003KT 9999 FEW030 25/22 Q1008
TAF VTUI 240500Z 2406/2506 12006KT 9999 BKN025 
     BECMG 2422/2424 9000 SCT025 
     BECMG 2503/2505 09005KT 9999 BKN025
       
VTSM 241100Z 00000KT 9000 FEW020 31/26 Q1009
TAF VTSM 240500Z 2406/2506 31012KT 9000 FEW020 
     TEMPO 2406/2412 VRB15KT 7000 -RA SCT015 BKN100 
     BECMG 2413/2415 00000KT 
     BECMG 2502/2504 31010KT
       
VTSH 241100Z 22004KT 9999 FEW018CB SCT020 27/24 Q1009 NOSIG
TAF VTSH 240500Z 2406/2506 05009KT 9999 FEW020 
     TEMPO 2406/2411 VRB10KT FEW016CB SCT018 
     BECMG 2413/2415 VRB02KT 
     BECMG 2500/2502 10006KT
       
VTPO 241100Z 00000KT 5000 HZ FEW022 36/19 Q1003
TAF VTPO 240500Z 2406/2506 18005KT 8000 FEW035
       
VTSB 241100Z 22005KT 9999 SCT020 27/26 Q1009
TAF VTSB 240500Z 2406/2506 21007KT 9999 SCT020 
     TEMPO 2406/2412 VRB13KT 7000 -TSRA FEW016CB SCT018 BKN100 
     BECMG 2412/2414 00000KT 7000 
     BECMG 2421/2423 3000 BR 
     BECMG 2502/2504 20006KT 9999
       
TAF VTPT 240500Z 2406/2506 18005KT 8000 FEW035
       
VTST 241000Z 06003KT 9999 TS FEW018CB SCT023 BKN100 25/24 Q1008
TAF VTST 240500Z 2406/2506 29006KT 9000 FEW020 BKN100 
     PROB40 
     TEMPO 2406/2410 VRB10G20KT 3000 TSRA FEW016CB SCT020 BKN100 
     BECMG 2416/2418 VRB02KT 3000 BR 
     BECMG 2502/2504 29006KT9000
       
VTBU 241100Z 17008KT 9000 FEW020 30/22 Q1006 NOSIG
TAF VTBU 240500Z 2406/2506 18010KT 5000 HZ FEW020 
     TEMPO 2406/2411 FEW020CB 
     BECMG 2411/2413 22006KT 4000 HZ
       
VTUU 241100Z 12006KT 100V160 8000 FEW022TCU 32/24 Q1006 NOSIG
TAF VTUU 240500Z 2406/2506 23005KT 9999 FEW025 SCT100 
     TEMPO 2408/2411 VRB10KT 5000 TSRA FEW018CB SCT020 BKN100 
     BECMG 2414/2416 24003KT 9000 SCT030
       
VTUD 241100Z 13005KT 090V190 8000 FEW025CB 25/22 Q1007
TAF VTUD 240500Z 2406/2506 16005KT 9999 BKN020 
     BECMG 2422/2424 8000 SCT025 
     BECMG 2503/2505 9999 BKN025